Time;durP1;ratioP1;P1;durP2;ratioP2;P2;SDS_P1;SDS_P2;PMS_P1;PMS_P2;Temp;Humidity;BMP_temperature;BMP_pressure;BME280_temperature;BME280_humidity;BME280_pressure;Samples;Min_cycle;Max_cycle;Signal;HPM_P1;HPM_P2
2023/01/24 00:00:57;;;;;;;;;;;4.20;99.90;;;;;;7358288;19;109310;-94
2023/01/24 00:03:24;;;;;;;;;;;4.30;99.90;;;;;;7358657;19;111143;-94
2023/01/24 00:05:52;;;;;;;;;;;4.20;99.90;;;;;;7359526;19;108572;-95
2023/01/24 00:08:20;;;;;;;;;;;4.20;99.90;;;;;;7359593;19;110441;-95
2023/01/24 00:10:47;;;;;;;;;;;4.20;99.90;;;;;;7353361;19;108701;-96
2023/01/24 00:13:14;;;;;;;;;;;4.20;99.90;;;;;;7359294;19;109802;-94
2023/01/24 00:15:42;;;;;;;;;;;4.20;99.90;;;;;;7363563;19;111251;-95
2023/01/24 00:18:11;;;;;;;;;;;4.20;99.90;;;;;;7362504;19;108383;-94
2023/01/24 00:20:38;;;;;;;;;;;4.10;99.90;;;;;;7362269;19;111766;-94
2023/01/24 00:23:05;;;;;;;;;;;4.20;99.90;;;;;;7360961;19;112493;-95
2023/01/24 00:25:32;;;;;;;;;;;4.20;99.90;;;;;;7358844;19;108577;-93
2023/01/24 00:27:59;;;;;;;;;;;4.10;99.90;;;;;;7363482;19;111104;-94
2023/01/24 00:30:26;;;;;;;;;;;4.20;99.90;;;;;;7365012;19;108915;-94
2023/01/24 00:32:53;;;;;;;;;;;4.20;99.90;;;;;;7359370;19;108807;-94
2023/01/24 00:35:20;;;;;;;;;;;4.20;99.90;;;;;;7356206;19;112966;-94
2023/01/24 00:37:47;;;;;;;;;;;4.20;99.90;;;;;;7354955;19;108190;-94
2023/01/24 00:40:15;;;;;;;;;;;4.20;99.90;;;;;;7357391;19;110355;-94
2023/01/24 00:42:42;;;;;;;;;;;4.20;99.90;;;;;;7362466;19;112471;-96
2023/01/24 00:45:09;;;;;;;;;;;4.20;99.90;;;;;;7372392;19;107891;-95
2023/01/24 00:47:36;;;;;;;;;;;4.20;99.90;;;;;;7369409;19;111174;-95
2023/01/24 00:50:03;;;;;;;;;;;4.20;99.90;;;;;;7365465;19;109170;-95
2023/01/24 00:52:30;;;;;;;;;;;4.10;99.90;;;;;;7357359;19;108397;-94
2023/01/24 00:54:57;;;;;;;;;;;4.10;99.90;;;;;;7348048;19;111722;-95
2023/01/24 00:57:24;;;;;;;;;;;4.10;99.90;;;;;;7347725;19;108496;-95
2023/01/24 00:59:51;;;;;;;;;;;4.10;99.90;;;;;;7349256;19;109703;-95
2023/01/24 01:02:18;;;;;;;;;;;4.10;99.90;;;;;;7347680;19;113277;-94
2023/01/24 01:04:46;;;;;;;;;;;4.20;99.90;;;;;;7349159;19;108875;-96
2023/01/24 01:07:13;;;;;;;;;;;4.20;99.90;;;;;;7348846;19;111504;-95
2023/01/24 01:09:40;;;;;;;;;;;4.10;99.90;;;;;;7346355;19;109260;-96
2023/01/24 01:12:07;;;;;;;;;;;4.10;99.90;;;;;;7347327;19;108457;-94
2023/01/24 01:14:34;;;;;;;;;;;4.20;99.90;;;;;;7351532;19;111515;-95
2023/01/24 01:17:01;;;;;;;;;;;4.10;99.90;;;;;;7348598;19;108055;-95
2023/01/24 01:19:28;;;;;;;;;;;4.20;99.90;;;;;;7345544;19;110123;-95
2023/01/24 01:21:56;;;;;;;;;;;4.20;99.90;;;;;;7348884;19;112075;-96
2023/01/24 01:24:23;;;;;;;;;;;4.20;99.90;;;;;;7348139;19;110204;-95
2023/01/24 01:26:50;;;;;;;;;;;4.20;99.90;;;;;;7348157;19;110779;-95
2023/01/24 01:29:18;;;;;;;;;;;4.20;99.90;;;;;;7345993;19;111618;-96
2023/01/24 01:31:45;;;;;;;;;;;4.20;99.90;;;;;;7347645;19;108496;-95
2023/01/24 01:34:12;;;;;;;;;;;4.20;99.90;;;;;;7354032;19;109965;-95
2023/01/24 01:36:39;;;;;;;;;;;4.20;99.90;;;;;;7345069;19;108511;-96
2023/01/24 01:39:06;;;;;;;;;;;4.20;99.90;;;;;;7349438;19;111812;-95
2023/01/24 01:41:33;;;;;;;;;;;4.20;99.90;;;;;;7346584;19;112615;-95
2023/01/24 01:44:38;;;;;;;;;;;4.20;99.90;;;;;;7347435;19;108352;-95
2023/01/24 01:47:11;;;;;;;;;;;4.20;99.90;;;;;;7347832;19;111933;-96
2023/01/24 01:49:40;;;;;;;;;;;4.10;99.90;;;;;;7345707;19;111379;-95
2023/01/24 01:52:07;;;;;;;;;;;4.20;99.90;;;;;;7346928;19;109666;-95
2023/01/24 01:54:36;;;;;;;;;;;4.20;99.90;;;;;;7345838;19;108108;-95
2023/01/24 01:57:08;;;;;;;;;;;4.20;99.90;;;;;;7353884;19;111494;-95
2023/01/24 01:59:36;;;;;;;;;;;4.20;99.90;;;;;;7346567;19;110869;-94
2023/01/24 02:02:05;;;;;;;;;;;4.10;99.90;;;;;;7346062;19;109590;-96
2023/01/24 02:04:37;;;;;;;;;;;4.10;99.90;;;;;;7346287;19;108374;-95
2023/01/24 02:07:12;;;;;;;;;;;4.10;99.90;;;;;;7346265;19;109147;-95
2023/01/24 02:09:46;;;;;;;;;;;4.10;99.90;;;;;;7346244;19;130825;-95
2023/01/24 02:12:33;;;;;;;;;;;4.10;99.90;;;;;;7343326;19;108734;-96
2023/01/24 02:18:00;;;;;;;;;;;4.20;99.90;;;;;;7347209;19;112404;-95
2023/01/24 02:20:41;;;;;;;;;;;4.20;99.90;;;;;;7351104;19;107964;-95
2023/01/24 02:23:27;;;;;;;;;;;4.20;99.90;;;;;;7347094;19;113138;-96
2023/01/24 02:26:11;;;;;;;;;;;4.20;99.90;;;;;;7345996;19;108291;-96
2023/01/24 02:28:46;;;;;;;;;;;4.20;99.90;;;;;;7342981;19;111463;-95
2023/01/24 02:31:16;;;;;;;;;;;4.20;99.90;;;;;;7345841;19;111699;-96
2023/01/24 02:33:43;;;;;;;;;;;4.30;99.90;;;;;;7345701;19;108289;-96
2023/01/24 02:36:21;;;;;;;;;;;4.30;99.90;;;;;;7348066;19;111698;-95
2023/01/24 02:38:54;;;;;;;;;;;4.30;99.90;;;;;;7344122;19;111391;-95
2023/01/24 02:41:25;;;;;;;;;;;4.30;99.90;;;;;;7345599;19;108468;-95
2023/01/24 02:43:52;;;;;;;;;;;4.20;99.90;;;;;;7349536;19;110441;-96
2023/01/24 02:46:19;;;;;;;;;;;4.20;99.90;;;;;;7346388;19;108746;-95
2023/01/24 02:48:49;;;;;;;;;;;4.20;99.90;;;;;;7347048;19;111470;-95
2023/01/24 02:54:02;;;;;;;;;;;4.30;99.90;;;;;;7347884;19;109593;-96
2023/01/24 02:59:15;;;;;;;;;;;4.30;99.90;;;;;;7345653;19;110719;-96
2023/01/24 03:01:42;;;;;;;;;;;4.30;99.90;;;;;;7349156;19;108343;-95
2023/01/24 03:04:10;;;;;;;;;;;4.30;99.90;;;;;;7350981;19;108556;-95
2023/01/24 03:06:37;;;;;;;;;;;4.30;99.90;;;;;;7357849;19;112092;-96
2023/01/24 03:09:18;;;;;;;;;;;4.30;99.90;;;;;;7354120;19;112159;-96
2023/01/24 03:11:46;;;;;;;;;;;4.30;99.90;;;;;;7349653;19;108230;-96
2023/01/24 03:36:31;;;;;;;;;;;4.40;99.90;;;;;;7351642;19;108032;-93
2023/01/24 03:41:44;;;;;;;;;;;4.30;99.90;;;;;;7350527;19;110065;-93
2023/01/24 03:44:11;;;;;;;;;;;4.30;99.90;;;;;;7350480;19;108466;-94
2023/01/24 03:46:39;;;;;;;;;;;4.30;99.90;;;;;;7351240;19;111948;-95
2023/01/24 03:49:07;;;;;;;;;;;4.30;99.90;;;;;;7349303;19;113310;-94
2023/01/24 03:54:19;;;;;;;;;;;4.30;99.90;;;;;;7351039;19;108437;-94
2023/01/24 03:56:47;;;;;;;;;;;4.40;99.90;;;;;;7352476;19;108292;-95
2023/01/24 03:59:16;;;;;;;;;;;4.40;99.90;;;;;;7347407;19;110323;-91
2023/01/24 04:01:43;;;;;;;;;;;4.40;99.90;;;;;;7344812;19;113240;-91
2023/01/24 04:04:11;;;;;;;;;;;4.40;99.90;;;;;;7346316;19;108833;-89
2023/01/24 04:06:38;;;;;;;;;;;4.30;99.90;;;;;;7344980;19;110064;-88
2023/01/24 04:09:05;;;;;;;;;;;4.30;99.90;;;;;;7348247;19;109420;-90
2023/01/24 04:11:31;;;;;;;;;;;4.20;99.90;;;;;;7345209;19;108768;-90
2023/01/24 04:13:58;;;;;;;;;;;4.30;99.90;;;;;;7352174;19;109066;-89
2023/01/24 04:16:25;;;;;;;;;;;4.30;99.90;;;;;;7346623;19;109367;-90
2023/01/24 04:18:52;;;;;;;;;;;4.30;99.90;;;;;;7346827;19;109392;-90
2023/01/24 04:21:19;;;;;;;;;;;4.30;99.90;;;;;;7345571;19;111551;-90
2023/01/24 04:23:46;;;;;;;;;;;4.10;99.90;;;;;;7349633;19;110064;-90
2023/01/24 04:26:13;;;;;;;;;;;4.00;99.90;;;;;;7344692;19;111971;-90
2023/01/24 04:28:40;;;;;;;;;;;4.00;99.90;;;;;;7345129;19;110326;-89
2023/01/24 04:31:08;;;;;;;;;;;4.00;99.90;;;;;;7345040;19;108926;-90
2023/01/24 04:33:35;;;;;;;;;;;4.00;99.90;;;;;;7343773;19;110087;-90
2023/01/24 04:36:05;;;;;;;;;;;4.00;99.90;;;;;;7350191;19;109342;-90
2023/01/24 04:38:32;;;;;;;;;;;4.10;99.90;;;;;;7345345;19;112414;-90
2023/01/24 04:40:59;;;;;;;;;;;4.20;99.90;;;;;;7343942;19;111474;-90
2023/01/24 04:43:27;;;;;;;;;;;4.20;99.90;;;;;;7344277;19;110501;-91
2023/01/24 04:45:55;;;;;;;;;;;4.20;99.90;;;;;;7346519;19;108870;-90
2023/01/24 04:48:22;;;;;;;;;;;4.10;99.90;;;;;;7343291;19;109497;-90
2023/01/24 04:50:49;;;;;;;;;;;4.10;99.90;;;;;;7345249;19;108627;-92
2023/01/24 04:53:16;;;;;;;;;;;4.10;99.90;;;;;;7344761;19;112083;-90
2023/01/24 04:55:44;;;;;;;;;;;4.10;99.90;;;;;;7343727;19;109906;-91
2023/01/24 04:58:11;;;;;;;;;;;4.10;99.90;;;;;;7349332;19;109810;-91
2023/01/24 05:00:38;;;;;;;;;;;4.00;99.90;;;;;;7343869;19;113382;-91
2023/01/24 05:03:05;;;;;;;;;;;4.10;99.90;;;;;;7346233;19;108876;-91
2023/01/24 05:05:32;;;;;;;;;;;4.10;99.90;;;;;;7344216;19;111989;-90
2023/01/24 05:07:59;;;;;;;;;;;4.10;99.90;;;;;;7346586;19;112114;-91
2023/01/24 05:10:27;;;;;;;;;;;4.10;99.90;;;;;;7342313;19;108618;-91
2023/01/24 05:12:54;;;;;;;;;;;4.10;99.90;;;;;;7345842;19;111694;-90
2023/01/24 05:15:22;;;;;;;;;;;4.20;99.90;;;;;;7346001;19;113370;-91
2023/01/24 05:17:50;;;;;;;;;;;4.30;99.90;;;;;;7342902;19;108581;-91
2023/01/24 05:20:17;;;;;;;;;;;4.10;99.90;;;;;;7350167;19;108461;-90
2023/01/24 05:22:46;;;;;;;;;;;4.00;99.90;;;;;;7343328;19;108515;-90
2023/01/24 05:25:14;;;;;;;;;;;4.00;99.90;;;;;;7340885;19;108733;-91
2023/01/24 05:27:41;;;;;;;;;;;3.90;99.90;;;;;;7341490;19;109100;-91
2023/01/24 05:30:09;;;;;;;;;;;3.90;99.90;;;;;;7345098;19;111588;-90
2023/01/24 05:32:37;;;;;;;;;;;3.90;99.90;;;;;;7344337;19;111566;-91
2023/01/24 05:35:05;;;;;;;;;;;3.90;99.90;;;;;;7345817;19;112813;-91
2023/01/24 05:37:32;;;;;;;;;;;4.00;99.90;;;;;;7343730;19;108857;-91
2023/01/24 05:39:59;;;;;;;;;;;4.00;99.90;;;;;;7345087;19;112057;-92
2023/01/24 05:42:27;;;;;;;;;;;4.00;99.90;;;;;;7349670;19;109969;-91
2023/01/24 05:44:53;;;;;;;;;;;4.00;99.90;;;;;;7344659;19;108804;-90
2023/01/24 05:47:20;;;;;;;;;;;4.00;99.90;;;;;;7344254;19;110522;-91
2023/01/24 05:49:47;;;;;;;;;;;4.00;99.90;;;;;;7342121;19;109082;-90
2023/01/24 05:52:20;;;;;;;;;;;4.10;99.90;;;;;;7341955;19;111147;-90
2023/01/24 05:54:48;;;;;;;;;;;4.20;99.90;;;;;;7336123;19;109943;-90
2023/01/24 05:57:15;;;;;;;;;;;4.10;99.90;;;;;;7340726;19;108892;-90
2023/01/24 05:59:42;;;;;;;;;;;4.00;99.90;;;;;;7337448;19;111161;-90
2023/01/24 06:02:09;;;;;;;;;;;3.90;99.90;;;;;;7343424;19;110564;-91
2023/01/24 06:04:36;;;;;;;;;;;3.90;99.90;;;;;;7337472;19;110123;-91
2023/01/24 06:07:03;;;;;;;;;;;3.80;99.90;;;;;;7338388;19;110323;-91
2023/01/24 06:09:30;;;;;;;;;;;3.80;99.90;;;;;;7338677;19;108923;-91
2023/01/24 06:11:57;;;;;;;;;;;3.80;99.90;;;;;;7341135;19;109944;-90
2023/01/24 06:14:24;;;;;;;;;;;3.90;99.90;;;;;;7338266;19;111477;-92
2023/01/24 06:16:51;;;;;;;;;;;3.80;99.90;;;;;;7341301;19;108908;-88
2023/01/24 06:19:18;;;;;;;;;;;3.80;99.90;;;;;;7345253;19;112752;-88
2023/01/24 06:21:46;;;;;;;;;;;3.70;99.90;;;;;;7356039;19;112114;-89
2023/01/24 06:24:16;;;;;;;;;;;3.70;99.90;;;;;;7370155;19;109007;-88
2023/01/24 06:26:43;;;;;;;;;;;3.70;99.90;;;;;;7367658;19;112328;-90
2023/01/24 06:29:10;;;;;;;;;;;3.70;99.90;;;;;;7368188;19;108718;-90
2023/01/24 06:31:37;;;;;;;;;;;3.70;99.90;;;;;;7369176;19;109568;-89
2023/01/24 06:34:04;;;;;;;;;;;3.80;99.90;;;;;;7366607;19;109876;-91
2023/01/24 06:36:45;;;;;;;;;;;3.80;99.90;;;;;;7351099;19;108698;-90
2023/01/24 06:39:16;;;;;;;;;;;3.60;99.90;;;;;;7349342;19;109721;-90
2023/01/24 06:41:43;;;;;;;;;;;3.60;99.90;;;;;;7348745;19;111897;-90
2023/01/24 06:44:11;;;;;;;;;;;3.60;99.90;;;;;;7348878;19;108941;-90
2023/01/24 06:46:38;;;;;;;;;;;3.60;99.90;;;;;;7351356;19;109555;-91
2023/01/24 06:49:05;;;;;;;;;;;3.60;99.90;;;;;;7350016;19;108585;-91
2023/01/24 06:51:32;;;;;;;;;;;3.60;99.90;;;;;;7350193;19;110989;-90
2023/01/24 06:53:59;;;;;;;;;;;3.60;99.90;;;;;;7347168;19;109291;-90
2023/01/24 06:56:29;;;;;;;;;;;3.60;99.90;;;;;;7347413;19;108707;-90
2023/01/24 06:58:56;;;;;;;;;;;3.60;99.90;;;;;;7349396;19;111799;-90
2023/01/24 07:01:23;;;;;;;;;;;3.60;99.90;;;;;;7348388;19;113952;-90
2023/01/24 07:03:50;;;;;;;;;;;3.60;99.90;;;;;;7350390;19;108345;-90
2023/01/24 07:06:17;;;;;;;;;;;3.50;99.90;;;;;;7346557;19;109779;-90
2023/01/24 07:08:44;;;;;;;;;;;3.50;99.90;;;;;;7352659;19;113364;-90
2023/01/24 07:11:11;;;;;;;;;;;3.60;99.90;;;;;;7348000;19;109386;-90
2023/01/24 07:13:38;;;;;;;;;;;3.50;99.90;;;;;;7348238;19;112539;-93
2023/01/24 07:16:05;;;;;;;;;;;3.50;99.90;;;;;;7347998;19;109870;-91
2023/01/24 07:18:33;;;;;;;;;;;3.50;99.90;;;;;;7348766;19;112258;-92
2023/01/24 07:21:04;;;;;;;;;;;3.50;99.90;;;;;;7347760;19;110672;-92
2023/01/24 07:23:32;;;;;;;;;;;3.50;99.90;;;;;;7350552;19;109419;-91
2023/01/24 07:25:59;;;;;;;;;;;3.40;99.90;;;;;;7348315;19;111741;-92
2023/01/24 07:28:26;;;;;;;;;;;3.40;99.90;;;;;;7348864;19;112637;-93
2023/01/24 07:30:53;;;;;;;;;;;3.50;99.90;;;;;;7354192;19;111479;-90
2023/01/24 07:33:21;;;;;;;;;;;3.50;99.90;;;;;;7349825;19;112761;-91
2023/01/24 07:35:48;;;;;;;;;;;3.40;99.90;;;;;;7350101;19;109121;-91
2023/01/24 07:38:15;;;;;;;;;;;3.40;99.90;;;;;;7349505;19;108482;-90
2023/01/24 07:40:42;;;;;;;;;;;3.50;99.90;;;;;;7346951;19;113150;-92
2023/01/24 07:43:09;;;;;;;;;;;3.50;99.90;;;;;;7349440;19;108624;-92
2023/01/24 07:45:37;;;;;;;;;;;3.50;99.90;;;;;;7347846;19;112015;-91
2023/01/24 07:48:06;;;;;;;;;;;3.60;99.90;;;;;;7346014;19;113299;-92
2023/01/24 07:50:34;;;;;;;;;;;3.50;99.90;;;;;;7349626;19;108354;-90
2023/01/24 07:53:01;;;;;;;;;;;3.50;99.90;;;;;;7353235;19;109722;-91
2023/01/24 07:55:28;;;;;;;;;;;3.50;99.90;;;;;;7346978;19;110133;-91
2023/01/24 07:57:59;;;;;;;;;;;3.60;99.90;;;;;;7348379;19;111420;-92
2023/01/24 08:00:26;;;;;;;;;;;3.60;99.90;;;;;;7346944;19;110260;-91
2023/01/24 08:02:53;;;;;;;;;;;3.50;99.90;;;;;;7347729;19;111942;-90
2023/01/24 08:05:20;;;;;;;;;;;3.60;99.90;;;;;;7347439;19;109226;-92
2023/01/24 08:07:47;;;;;;;;;;;3.60;99.90;;;;;;7345984;19;111595;-91
2023/01/24 08:10:14;;;;;;;;;;;3.60;99.90;;;;;;7346857;19;108379;-90
2023/01/24 08:12:41;;;;;;;;;;;3.70;99.90;;;;;;7354255;19;108605;-91
2023/01/24 08:15:08;;;;;;;;;;;3.60;99.90;;;;;;7349060;19;111860;-91
2023/01/24 08:17:36;;;;;;;;;;;3.60;99.90;;;;;;7347070;19;109153;-91
2023/01/24 08:20:04;;;;;;;;;;;3.60;99.90;;;;;;7346662;19;112521;-91
2023/01/24 08:22:31;;;;;;;;;;;3.70;99.90;;;;;;7346952;19;108374;-91
2023/01/24 08:24:58;;;;;;;;;;;3.70;99.90;;;;;;7346498;19;110919;-91
2023/01/24 08:27:25;;;;;;;;;;;3.80;99.90;;;;;;7346180;19;110284;-91
2023/01/24 08:29:52;;;;;;;;;;;3.90;99.90;;;;;;7345418;19;108587;-90
2023/01/24 08:32:19;;;;;;;;;;;3.80;99.90;;;;;;7347830;19;108647;-91
2023/01/24 08:34:46;;;;;;;;;;;3.80;99.90;;;;;;7351362;19;112927;-91
2023/01/24 08:37:13;;;;;;;;;;;3.70;99.90;;;;;;7347456;19;109195;-91
2023/01/24 08:39:40;;;;;;;;;;;3.70;99.90;;;;;;7345439;19;110729;-91
2023/01/24 08:42:07;;;;;;;;;;;3.70;99.90;;;;;;7348160;19;108414;-90
2023/01/24 08:44:34;;;;;;;;;;;3.80;99.90;;;;;;7345828;19;109299;-90
2023/01/24 08:47:01;;;;;;;;;;;3.90;99.90;;;;;;7346698;19;111813;-91
2023/01/24 08:49:28;;;;;;;;;;;3.90;99.90;;;;;;7348084;19;108796;-91
2023/01/24 08:51:58;;;;;;;;;;;3.90;99.90;;;;;;7347374;19;112361;-91
2023/01/24 08:54:26;;;;;;;;;;;3.90;99.90;;;;;;7344559;19;110735;-91
2023/01/24 08:56:53;;;;;;;;;;;3.80;99.90;;;;;;7351782;19;111061;-92
2023/01/24 08:59:20;;;;;;;;;;;3.90;99.90;;;;;;7345356;19;109201;-91
2023/01/24 09:01:47;;;;;;;;;;;4.00;99.90;;;;;;7346920;19;108818;-92
2023/01/24 09:04:14;;;;;;;;;;;4.00;99.90;;;;;;7346714;19;109619;-90
2023/01/24 09:06:41;;;;;;;;;;;4.00;99.90;;;;;;7345861;19;113121;-91
2023/01/24 09:09:08;;;;;;;;;;;4.00;99.90;;;;;;7344058;19;108539;-92
2023/01/24 09:11:35;;;;;;;;;;;3.90;99.90;;;;;;7346181;19;111964;-92
2023/01/24 09:14:02;;;;;;;;;;;3.80;99.90;;;;;;7344981;19;112509;-91
2023/01/24 09:16:29;;;;;;;;;;;3.70;99.90;;;;;;7348343;19;108316;-91
2023/01/24 09:18:56;;;;;;;;;;;3.70;99.90;;;;;;7351441;19;110499;-91
2023/01/24 09:21:23;;;;;;;;;;;3.50;99.90;;;;;;7345888;19;109413;-90
2023/01/24 09:23:52;;;;;;;;;;;3.60;99.90;;;;;;7344826;19;111605;-91
2023/01/24 09:26:19;;;;;;;;;;;3.70;99.90;;;;;;7343785;19;112654;-89
2023/01/24 09:28:46;;;;;;;;;;;3.80;99.90;;;;;;7347317;19;108405;-90
2023/01/24 09:31:13;;;;;;;;;;;3.90;99.90;;;;;;7344372;19;112060;-90
2023/01/24 09:33:40;;;;;;;;;;;4.00;99.90;;;;;;7343386;19;112183;-91
2023/01/24 09:36:23;;;;;;;;;;;3.90;99.90;;;;;;7345564;19;108862;-92
2023/01/24 09:38:52;;;;;;;;;;;3.80;99.90;;;;;;7346924;19;109310;-91
2023/01/24 09:41:44;;;;;;;;;;;3.90;99.90;;;;;;7348260;19;112187;-91
2023/01/24 09:44:14;;;;;;;;;;;4.00;99.90;;;;;;7344380;19;111424;-90
2023/01/24 09:46:43;;;;;;;;;;;4.10;99.90;;;;;;7341861;19;112722;-91
2023/01/24 09:49:13;;;;;;;;;;;4.20;99.90;;;;;;7344911;19;109097;-91
2023/01/24 09:51:51;;;;;;;;;;;4.30;99.90;;;;;;7342882;19;109019;-91
2023/01/24 09:54:24;;;;;;;;;;;4.30;99.90;;;;;;7344440;19;109713;-91
2023/01/24 09:56:52;;;;;;;;;;;4.30;99.90;;;;;;7345713;19;108357;-92
2023/01/24 09:59:25;;;;;;;;;;;4.20;99.90;;;;;;7344494;19;108578;-91
2023/01/24 10:01:53;;;;;;;;;;;4.10;99.90;;;;;;7347705;19;112380;-92
2023/01/24 10:04:30;;;;;;;;;;;4.10;99.90;;;;;;7348511;19;108753;-91
2023/01/24 10:07:06;;;;;;;;;;;4.00;99.90;;;;;;7344668;19;113109;-91
2023/01/24 10:09:52;;;;;;;;;;;4.00;99.90;;;;;;7345504;19;109470;-91
2023/01/24 10:12:29;;;;;;;;;;;4.00;99.90;;;;;;7343330;19;110057;-91
2023/01/24 10:15:11;;;;;;;;;;;4.00;99.90;;;;;;7342917;19;110845;-91
2023/01/24 10:17:42;;;;;;;;;;;3.90;99.90;;;;;;7342139;19;109821;-91
2023/01/24 10:20:12;;;;;;;;;;;4.00;99.90;;;;;;7341953;19;110464;-91
2023/01/24 10:22:48;;;;;;;;;;;4.10;99.90;;;;;;7341401;19;111362;-91
2023/01/24 10:25:15;;;;;;;;;;;4.20;99.90;;;;;;7350060;19;108783;-91
2023/01/24 10:27:44;;;;;;;;;;;4.30;99.90;;;;;;7341237;19;108876;-91
2023/01/24 10:30:34;;;;;;;;;;;4.10;99.90;;;;;;7343492;19;108634;-92
2023/01/24 10:33:03;;;;;;;;;;;4.20;99.90;;;;;;7340467;19;109046;-92
2023/01/24 10:35:34;;;;;;;;;;;4.30;99.90;;;;;;7339630;19;112685;-91
2023/01/24 10:38:04;;;;;;;;;;;4.30;99.90;;;;;;7341535;19;109567;-91
2023/01/24 10:40:31;;;;;;;;;;;4.30;99.90;;;;;;7339996;19;110810;-90
2023/01/24 10:43:04;;;;;;;;;;;4.20;99.90;;;;;;7340425;19;111554;-91
2023/01/24 10:45:51;;;;;;;;;;;4.10;99.90;;;;;;7340821;19;108504;-92
2023/01/24 10:48:28;;;;;;;;;;;4.20;99.90;;;;;;7344546;19;110378;-92
2023/01/24 10:51:08;;;;;;;;;;;4.20;99.90;;;;;;7338910;19;108734;-91
2023/01/24 10:53:36;;;;;;;;;;;4.30;99.90;;;;;;7340490;19;108614;-91
2023/01/24 10:56:03;;;;;;;;;;;4.40;99.90;;;;;;7339442;19;110517;-92
2023/01/24 10:58:39;;;;;;;;;;;4.40;99.90;;;;;;7339182;19;108485;-91
2023/01/24 11:01:08;;;;;;;;;;;4.40;99.90;;;;;;7340296;19;111832;-92
2023/01/24 11:03:40;;;;;;;;;;;4.40;99.90;;;;;;7338389;19;112343;-91
2023/01/24 11:06:20;;;;;;;;;;;4.50;99.90;;;;;;7340072;19;108528;-91
2023/01/24 11:08:52;;;;;;;;;;;4.60;99.90;;;;;;7339528;19;112958;-92
2023/01/24 11:11:22;;;;;;;;;;;4.60;99.90;;;;;;7349286;19;112930;-92
2023/01/24 11:13:53;;;;;;;;;;;4.40;99.90;;;;;;7343755;19;111661;-92
2023/01/24 11:16:22;;;;;;;;;;;4.30;99.90;;;;;;7342190;19;109239;-91
2023/01/24 11:19:12;;;;;;;;;;;4.30;99.90;;;;;;7340132;19;108592;-90
2023/01/24 11:21:50;;;;;;;;;;;4.30;99.90;;;;;;7343127;19;109175;-91
2023/01/24 11:24:18;;;;;;;;;;;4.20;99.90;;;;;;7347834;19;112588;-90
2023/01/24 11:26:56;;;;;;;;;;;4.10;99.90;;;;;;7348003;19;108870;-91
2023/01/24 11:29:23;;;;;;;;;;;4.10;99.90;;;;;;7348368;19;111231;-92
2023/01/24 11:31:55;;;;;;;;;;;3.90;99.90;;;;;;7348201;19;112088;-91
2023/01/24 11:34:38;;;;;;;;;;;4.00;99.90;;;;;;7357054;19;109182;-90
2023/01/24 11:37:24;;;;;;;;;;;4.10;99.90;;;;;;7347923;19;110700;-91
2023/01/24 11:40:07;;;;;;;;;;;4.30;99.90;;;;;;7348327;19;108067;-92
2023/01/24 11:42:43;;;;;;;;;;;4.40;99.90;;;;;;7349192;19;112027;-91
2023/01/24 11:45:32;;;;;;;;;;;4.50;99.90;;;;;;7347291;19;112731;-91
2023/01/24 11:47:59;;;;;;;;;;;4.50;99.90;;;;;;7347216;19;109604;-88
2023/01/24 11:50:28;;;;;;;;;;;4.60;99.90;;;;;;7348552;19;109340;-91
2023/01/24 11:53:03;;;;;;;;;;;4.60;99.90;;;;;;7344221;19;112693;-91
2023/01/24 11:55:47;;;;;;;;;;;4.60;99.90;;;;;;7348359;19;108646;-91
2023/01/24 11:58:22;;;;;;;;;;;4.70;99.90;;;;;;7351683;19;110761;-90
2023/01/24 12:01:08;;;;;;;;;;;4.70;99.90;;;;;;7349757;19;108993;-89
2023/01/24 12:03:47;;;;;;;;;;;4.80;99.90;;;;;;7348384;19;111665;-91
2023/01/24 12:06:17;;;;;;;;;;;4.80;99.90;;;;;;7347583;19;111960;-90
2023/01/24 12:08:50;;;;;;;;;;;4.80;99.90;;;;;;7346457;19;108473;-91
2023/01/24 12:11:20;;;;;;;;;;;4.70;99.90;;;;;;7348597;19;109284;-93
2023/01/24 12:14:11;;;;;;;;;;;4.50;99.90;;;;;;7347187;19;110117;-91
2023/01/24 12:16:46;;;;;;;;;;;4.40;99.90;;;;;;7349220;19;108437;-91
2023/01/24 12:19:32;;;;;;;;;;;4.20;99.90;;;;;;7351658;19;109490;-91
2023/01/24 12:22:00;;;;;;;;;;;4.10;99.90;;;;;;7348890;19;108340;-91
2023/01/24 12:24:30;;;;;;;;;;;4.10;99.90;;;;;;7346911;19;111635;-91
2023/01/24 12:27:02;;;;;;;;;;;4.00;99.90;;;;;;7347595;19;111417;-91
2023/01/24 12:29:38;;;;;;;;;;;4.00;99.90;;;;;;7348489;19;108393;-91
2023/01/24 12:32:13;;;;;;;;;;;4.00;99.90;;;;;;7347221;19;108088;-92
2023/01/24 12:34:43;;;;;;;;;;;4.10;99.90;;;;;;7344674;19;112656;-91
2023/01/24 12:37:14;;;;;;;;;;;4.10;99.90;;;;;;7346271;19;108168;-90
2023/01/24 12:39:45;;;;;;;;;;;4.00;99.90;;;;;;7346414;19;112124;-92
2023/01/24 12:42:24;;;;;;;;;;;4.10;99.90;;;;;;7353065;19;112590;-91
2023/01/24 12:44:56;;;;;;;;;;;4.10;99.90;;;;;;7347044;19;109321;-91
2023/01/24 12:47:36;;;;;;;;;;;4.20;99.90;;;;;;7348886;19;109542;-90
2023/01/24 12:50:22;;;;;;;;;;;4.10;99.90;;;;;;7349311;19;108434;-90
2023/01/24 12:52:59;;;;;;;;;;;4.10;99.90;;;;;;7347155;19;109480;-91
2023/01/24 12:55:28;;;;;;;;;;;4.20;99.90;;;;;;7347755;19;113005;-91
2023/01/24 12:58:01;;;;;;;;;;;4.00;99.90;;;;;;7346485;19;109158;-90
2023/01/24 13:00:39;;;;;;;;;;;4.00;99.90;;;;;;7346262;19;112107;-91
2023/01/24 13:03:06;;;;;;;;;;;4.10;99.90;;;;;;7341282;19;109338;-90
2023/01/24 13:05:33;;;;;;;;;;;4.20;99.90;;;;;;7345857;19;109029;-91
2023/01/24 13:08:06;;;;;;;;;;;4.30;99.90;;;;;;7341304;19;110351;-91
2023/01/24 13:10:36;;;;;;;;;;;4.40;99.90;;;;;;7341227;19;108807;-91
2023/01/24 13:13:04;;;;;;;;;;;4.50;99.90;;;;;;7342521;19;109522;-91
2023/01/24 13:15:37;;;;;;;;;;;4.40;99.90;;;;;;7341847;19;110669;-91
2023/01/24 13:18:07;;;;;;;;;;;4.30;99.90;;;;;;7345848;19;108518;-91
2023/01/24 13:20:33;;;;;;;;;;;4.30;99.90;;;;;;7345447;19;109148;-91
2023/01/24 13:23:11;;;;;;;;;;;4.30;99.90;;;;;;7349617;19;109934;-91
2023/01/24 13:25:59;;;;;;;;;;;4.30;99.90;;;;;;7348455;19;108213;-91
2023/01/24 13:28:35;;;;;;;;;;;4.50;99.90;;;;;;7353228;19;108783;-91
2023/01/24 13:31:23;;;;;;;;;;;4.40;99.90;;;;;;7368187;19;107494;-96
2023/01/24 13:33:55;;;;;;;;;;;4.40;99.90;;;;;;7343216;19;110256;-89
2023/01/24 13:36:24;;;;;;;;;;;4.50;99.90;;;;;;7340211;19;109903;-89
2023/01/24 13:38:52;;;;;;;;;;;4.60;99.90;;;;;;7343933;19;108576;-90
2023/01/24 13:41:25;;;;;;;;;;;4.70;99.90;;;;;;7344259;19;108573;-89
2023/01/24 13:43:56;;;;;;;;;;;4.70;99.90;;;;;;7343684;19;110058;-89
2023/01/24 13:46:41;;;;;;;;;;;4.70;99.90;;;;;;7338482;19;108540;-90
2023/01/24 13:49:17;;;;;;;;;;;4.70;99.90;;;;;;7341922;19;112003;-89
2023/01/24 13:51:48;;;;;;;;;;;4.70;99.90;;;;;;7345966;19;110324;-89
2023/01/24 13:54:17;;;;;;;;;;;4.80;99.90;;;;;;7344450;19;111283;-89
2023/01/24 13:57:16;;;;;;;;;;;4.90;99.90;;;;;;7343227;19;110204;-90
2023/01/24 13:59:57;;;;;;;;;;;5.00;99.90;;;;;;7341129;19;109717;-89
2023/01/24 14:02:35;;;;;;;;;;;5.20;99.90;;;;;;7341903;19;110543;-90
2023/01/24 14:05:03;;;;;;;;;;;5.30;99.90;;;;;;7343303;19;109090;-89
2023/01/24 14:07:36;;;;;;;;;;;5.50;99.90;;;;;;7341472;19;108797;-89
2023/01/24 14:10:05;;;;;;;;;;;5.60;99.90;;;;;;7345797;19;110355;-90
2023/01/24 14:12:35;;;;;;;;;;;5.70;99.90;;;;;;7340140;19;109133;-90
2023/01/24 14:15:23;;;;;;;;;;;5.70;99.90;;;;;;7349299;19;108674;-91
2023/01/24 14:17:51;;;;;;;;;;;5.80;99.90;;;;;;7343410;19;110282;-88
2023/01/24 14:20:21;;;;;;;;;;;5.80;99.90;;;;;;7342820;19;108300;-88
2023/01/24 14:22:51;;;;;;;;;;;5.70;99.90;;;;;;7342202;19;110289;-87
2023/01/24 14:25:18;;;;;;;;;;;5.80;99.90;;;;;;7342006;19;109706;-88
2023/01/24 14:27:50;;;;;;;;;;;5.90;99.90;;;;;;7343896;19;108411;-90
2023/01/24 14:30:17;;;;;;;;;;;5.90;99.90;;;;;;7342451;19;110484;-89
2023/01/24 14:32:47;;;;;;;;;;;5.90;99.90;;;;;;7338489;19;109170;-89
2023/01/24 14:35:18;;;;;;;;;;;5.90;99.90;;;;;;7346537;19;108414;-89
2023/01/24 14:37:46;;;;;;;;;;;6.00;99.90;;;;;;7342217;19;108493;-89
2023/01/24 14:40:16;;;;;;;;;;;5.90;99.90;;;;;;7342949;19;108390;-90
2023/01/24 14:42:43;;;;;;;;;;;5.80;99.90;;;;;;7340168;19;108535;-88
2023/01/24 14:45:15;;;;;;;;;;;5.80;99.90;;;;;;7342129;19;110378;-89
2023/01/24 14:47:46;;;;;;;;;;;5.70;99.90;;;;;;7340919;19;108765;-89
2023/01/24 14:50:24;;;;;;;;;;;5.60;99.90;;;;;;7340560;19;110665;-88
2023/01/24 14:52:51;;;;;;;;;;;5.30;99.90;;;;;;7339986;19;108479;-89
2023/01/24 14:55:27;;;;;;;;;;;5.40;99.90;;;;;;7341177;19;108549;-90
2023/01/24 14:57:54;;;;;;;;;;;5.50;99.90;;;;;;7350330;19;111749;-89
2023/01/24 15:00:22;;;;;;;;;;;5.50;99.90;;;;;;7348460;19;108422;-88
2023/01/24 15:02:56;;;;;;;;;;;5.60;99.90;;;;;;7346675;19;108945;-88
2023/01/24 15:05:24;;;;;;;;;;;5.70;99.90;;;;;;7348656;19;110539;-89
2023/01/24 15:07:52;;;;;;;;;;;5.70;99.90;;;;;;7347702;19;108538;-88
2023/01/24 15:10:23;;;;;;;;;;;5.70;99.90;;;;;;7346798;19;110552;-88